createdAt,value
2017-05-14T00:19:24.911Z,14
2017-05-14T00:29:34.797Z,13.9
2017-05-14T00:39:44.676Z,13.7
2017-05-14T00:49:54.633Z,13.7
2017-05-14T01:00:04.608Z,13.8
2017-05-14T01:10:14.599Z,13.6
2017-05-14T01:20:24.540Z,13.5
2017-05-14T01:30:34.510Z,13.5
2017-05-14T01:40:44.480Z,13.1
2017-05-14T01:50:54.553Z,13.1
2017-05-14T02:01:04.486Z,13
2017-05-14T02:11:14.508Z,12.8
2017-05-14T02:21:24.524Z,12.8
2017-05-14T02:31:34.556Z,12.6
2017-05-14T02:41:44.674Z,12.5
2017-05-14T02:51:54.821Z,12.5
2017-05-14T03:02:04.995Z,12.5
2017-05-14T03:12:15.130Z,12.4
2017-05-14T03:22:25.323Z,12.2
2017-05-14T03:32:35.538Z,12
2017-05-14T03:42:45.799Z,12
2017-05-14T03:52:56.035Z,11.9
2017-05-14T04:03:06.481Z,12
2017-05-14T04:13:16.466Z,12.2
2017-05-14T04:23:26.589Z,12
2017-05-14T04:33:36.643Z,12.2
2017-05-14T04:43:46.492Z,12.2
2017-05-14T04:53:56.205Z,12.4
2017-05-14T05:04:05.792Z,12.8
2017-05-14T05:14:15.256Z,13.2
2017-05-14T05:24:24.617Z,13.7
2017-05-14T05:34:33.807Z,14
2017-05-14T05:44:42.846Z,14.7
2017-05-14T05:54:51.711Z,15
2017-05-14T06:05:00.376Z,15.4
2017-05-14T06:15:08.916Z,15.5
2017-05-14T06:25:17.406Z,15.7
2017-05-14T06:35:25.837Z,15.9
2017-05-14T06:45:34.207Z,16.1
2017-05-14T06:55:42.488Z,16.2
2017-05-14T07:05:50.772Z,17.1
2017-05-14T07:15:58.829Z,17.3
2017-05-14T07:26:06.847Z,16.8
2017-05-14T07:36:14.979Z,17
2017-05-14T07:46:23.159Z,17.8
2017-05-14T07:56:31.140Z,18.2
2017-05-14T08:06:38.902Z,18.8
2017-05-14T08:16:46.498Z,18.7
2017-05-14T08:26:53.987Z,19
2017-05-14T08:37:01.530Z,19
2017-05-14T08:47:09.119Z,19.1
2017-05-14T08:57:16.886Z,19.3
2017-05-14T09:07:24.453Z,20
2017-05-14T09:17:31.840Z,19.7
2017-05-14T09:27:39.220Z,19.5
2017-05-14T09:37:46.586Z,20.6
2017-05-14T09:47:53.908Z,20
2017-05-14T09:58:01.227Z,20.4
2017-05-14T10:08:08.496Z,20.4
2017-05-14T10:18:15.825Z,19.6
2017-05-14T10:28:23.561Z,19.7
2017-05-14T10:38:31.479Z,20.4
2017-05-14T10:48:39.222Z,20.3
2017-05-14T10:58:46.741Z,21
2017-05-14T11:08:54.047Z,20
2017-05-14T11:19:01.551Z,21.1
2017-05-14T11:29:08.972Z,20.7
2017-05-14T11:39:16.262Z,21.2
2017-05-14T11:49:23.474Z,20.8
2017-05-14T11:59:30.767Z,20.7
2017-05-14T12:09:38.411Z,19.9
2017-05-14T12:19:46.586Z,17.1
2017-05-14T12:20:03.391Z,17.1
2017-05-14T12:20:19.232Z,17.2
2017-05-14T12:20:34.148Z,17.2
2017-05-14T12:21:16.950Z,17.1
2017-05-14T12:21:48.291Z,17.2
2017-05-14T12:22:58.480Z,17
2017-05-14T12:23:26.879Z,16.8
2017-05-14T12:32:46.357Z,16.6
2017-05-14T12:33:06.505Z,16.6
2017-05-14T12:33:25.308Z,16.5
2017-05-14T12:33:47.935Z,16.6
2017-05-14T12:37:33.675Z,16.4
2017-05-14T12:47:42.043Z,17.8
2017-05-14T12:57:50.079Z,19
2017-05-14T13:07:57.870Z,19.3
2017-05-14T13:18:05.697Z,19
2017-05-14T13:28:13.710Z,18.9
2017-05-14T13:38:21.784Z,20
2017-05-14T13:48:29.567Z,20.4
2017-05-14T13:58:36.864Z,20.3
2017-05-14T14:08:44.244Z,20.3
2017-05-14T14:18:51.794Z,19.2
2017-05-14T14:28:59.684Z,20.6
2017-05-14T14:39:07.274Z,20.1
2017-05-14T14:49:15.085Z,20.3
2017-05-14T14:59:22.846Z,20.1
2017-05-14T15:09:30.735Z,20.7
2017-05-14T15:19:38.520Z,20.3
2017-05-14T15:29:46.451Z,20.3
2017-05-14T15:39:54.518Z,20.2
2017-05-14T15:50:02.640Z,20.2
2017-05-14T16:00:10.787Z,20.7
2017-05-14T16:10:18.705Z,20.7
2017-05-14T16:20:26.845Z,20.3
2017-05-14T16:30:35.227Z,19.9
2017-05-14T16:40:43.675Z,19.2
2017-05-14T16:50:52.193Z,18.3
2017-05-14T17:01:00.914Z,17.3
2017-05-14T17:11:09.715Z,17.4
2017-05-14T17:21:18.526Z,17.3
2017-05-14T17:31:27.524Z,17.4
2017-05-14T17:41:36.472Z,17.6
2017-05-14T17:51:45.088Z,17.5
2017-05-14T18:01:53.639Z,17.8
2017-05-14T18:12:02.192Z,17.5
2017-05-14T18:22:10.895Z,17.1
2017-05-14T18:32:19.794Z,16.9
2017-05-14T18:42:28.872Z,16.9
2017-05-14T18:52:38.054Z,16.6
2017-05-14T19:02:47.252Z,16.5
2017-05-14T19:12:56.541Z,16.3
2017-05-14T19:23:05.972Z,16
2017-05-14T19:33:15.527Z,15.9
2017-05-14T19:43:25.168Z,15.9
2017-05-14T19:53:34.863Z,15.7
2017-05-14T20:03:44.584Z,15.5
2017-05-14T20:13:54.327Z,15.3
2017-05-14T20:24:04.062Z,15.2
2017-05-14T20:34:13.815Z,15
2017-05-14T20:44:23.624Z,14.9
2017-05-14T20:54:33.453Z,14.8
2017-05-14T21:04:43.300Z,14.5
2017-05-14T21:14:53.186Z,14.3
2017-05-14T21:25:03.087Z,14.2
2017-05-14T21:35:13.016Z,14.1
2017-05-14T21:45:23.025Z,13.7
2017-05-14T21:55:33.071Z,13.7
2017-05-14T22:05:43.084Z,13.4
2017-05-14T22:15:53.143Z,13.2
2017-05-14T22:26:03.212Z,13.2
2017-05-14T22:36:13.275Z,13.1
2017-05-14T22:46:23.415Z,13
2017-05-14T22:56:33.540Z,12.9
2017-05-14T23:06:43.708Z,12.9
2017-05-14T23:16:53.884Z,12.6
2017-05-14T23:27:04.081Z,12.5
2017-05-14T23:37:14.293Z,12.3
2017-05-14T23:47:24.487Z,12.1
2017-05-14T23:57:34.761Z,12.1
